Fort Bragg, CA (95437)

7:22 AM PST on February 13, 2016 (GMT -0800)
Caspar South | | Change Station
CLOSE
Current Station
Personal Weather Station
Location: Mendocino, CA
Elevation: 75 ft
Nearby Weather Stations

Elev 75 ft 39.36 °N, 123.82 °W | Updated 14 seconds ago

Partly Cloudy
Partly Cloudy
46.6 °F
Feels Like 45 °F
N
3.7
Wind Variable Wind from ENE

Today
High -- | Low -- °F
--% Chance of Precip.
Yesterday
High -- | Low -- °F
Precip. -- in
Pressure 30.30 in
Visibility 0.8 miles
Clouds
Windchill 45 °F
Dew Point 46 °F
Humidity 99%
Rainfall 0.00 in
Snow Depth Not available.
7:10 AM 5:49 PM
Waxing Crescent, 31% visible
SPECI KUKI 131511Z AUTO 00000KT 3/4SM BR VV001 04/03 A3030 RMK AO2 T00390033
Pressure 30.30 in
Visibility 0.8 miles
Clouds
Windchill 45 °F
Dew Point 46 °F
Humidity 99%
Rainfall 0.00 in
Snow Depth Not available.
7:10 AM 5:49 PM
Waxing Crescent, 31% visible
SPECI KUKI 131511Z AUTO 00000KT 3/4SM BR VV001 04/03 A3030 RMK AO2 T00390033

10-Day Weather Forecast

Almanac

Astronomy

Feb. 13, 2016 Rise Set
Actual Time
Civil Twilight
Nautical Twilight
Astronomical Twilight
Moon
Length of Visible Light
Length of Day
Tomorrow will be .
, % of the Moon is Illuminated

Today's Extremes

State Highs State Lows

Community

WunderPhotos

Upload Photos

1,892,580 photos uploaded!

WunderBlog® & News

Nearby

Air Quality

  Air Quality AQ Index Pollutant
Not available.

Snow Depth

Station Depth Elevation

Earthquake Activity

City Distance Mag. Time & Date
Minimum magnitude displayed is 2.5.

Coastal Water Temperatures

Place Temperature

Stations

Nearby Weather Stations

Station Location Temp. Windchill Dew Point Humidity Wind Precip. Elev Updated Type
                   

Watches & Warnings

There are currently no watches in effect.